sensor_id;sensor_type;location;lat;lon;timestamp;pressure;altitude;pressure_sealevel;temperature;humidity
68594;BME280;55563;52.416;13.548;2022-12-29T00:01:42;100302.63;;;7.18;100.00
68594;BME280;55563;52.416;13.548;2022-12-29T00:03:45;100294.00;;;7.17;100.00
68594;BME280;55563;52.416;13.548;2022-12-29T00:05:54;100288.03;;;7.22;100.00
68594;BME280;55563;52.416;13.548;2022-12-29T00:07:54;100294.78;;;7.18;100.00
68594;BME280;55563;52.416;13.548;2022-12-29T00:09:55;100292.19;;;7.18;100.00
68594;BME280;55563;52.416;13.548;2022-12-29T00:13:16;100288.75;;;7.17;100.00
68594;BME280;55563;52.416;13.548;2022-12-29T00:15:23;100275.31;;;7.30;100.00
68594;BME280;55563;52.416;13.548;2022-12-29T00:17:42;100287.53;;;7.25;100.00
68594;BME280;55563;52.416;13.548;2022-12-29T00:19:48;100281.84;;;7.28;100.00
68594;BME280;55563;52.416;13.548;2022-12-29T00:22:14;100278.50;;;7.32;100.00
68594;BME280;55563;52.416;13.548;2022-12-29T00:24:35;100267.34;;;7.42;100.00
68594;BME280;55563;52.416;13.548;2022-12-29T00:29:27;100264.19;;;7.40;100.00
68594;BME280;55563;52.416;13.548;2022-12-29T00:31:48;100261.84;;;7.43;100.00
68594;BME280;55563;52.416;13.548;2022-12-29T00:34:10;100274.69;;;7.45;100.00
68594;BME280;55563;52.416;13.548;2022-12-29T00:36:35;100264.28;;;7.50;100.00
68594;BME280;55563;52.416;13.548;2022-12-29T00:38:48;100263.50;;;7.50;100.00
68594;BME280;55563;52.416;13.548;2022-12-29T00:41:10;100260.03;;;7.44;100.00
68594;BME280;55563;52.416;13.548;2022-12-29T00:43:31;100259.28;;;7.49;100.00
68594;BME280;55563;52.416;13.548;2022-12-29T00:45:52;100250.47;;;7.55;100.00
68594;BME280;55563;52.416;13.548;2022-12-29T00:47:52;100246.31;;;7.59;100.00
68594;BME280;55563;52.416;13.548;2022-12-29T00:49:53;100249.94;;;7.53;100.00
68594;BME280;55563;52.416;13.548;2022-12-29T00:51:55;100252.00;;;7.51;100.00
68594;BME280;55563;52.416;13.548;2022-12-29T00:53:55;100248.84;;;7.49;100.00
68594;BME280;55563;52.416;13.548;2022-12-29T00:55:56;100250.63;;;7.43;100.00
68594;BME280;55563;52.416;13.548;2022-12-29T00:57:57;100245.78;;;7.57;100.00
68594;BME280;55563;52.416;13.548;2022-12-29T00:59:58;100246.25;;;7.54;100.00
68594;BME280;55563;52.416;13.548;2022-12-29T01:01:59;100255.41;;;7.51;100.00
68594;BME280;55563;52.416;13.548;2022-12-29T01:04:00;100244.38;;;7.49;100.00
68594;BME280;55563;52.416;13.548;2022-12-29T01:06:03;100241.25;;;7.47;100.00
68594;BME280;55563;52.416;13.548;2022-12-29T01:08:04;100238.97;;;7.56;100.00
68594;BME280;55563;52.416;13.548;2022-12-29T01:10:05;100237.09;;;7.51;100.00
68594;BME280;55563;52.416;13.548;2022-12-29T01:12:15;100230.88;;;7.57;100.00
68594;BME280;55563;52.416;13.548;2022-12-29T01:14:16;100239.47;;;7.53;100.00
68594;BME280;55563;52.416;13.548;2022-12-29T01:16:17;100238.22;;;7.60;100.00
68594;BME280;55563;52.416;13.548;2022-12-29T01:18:17;100224.59;;;7.58;100.00
68594;BME280;55563;52.416;13.548;2022-12-29T01:20:18;100232.38;;;7.48;100.00
68594;BME280;55563;52.416;13.548;2022-12-29T01:22:19;100223.53;;;7.54;100.00
68594;BME280;55563;52.416;13.548;2022-12-29T01:24:20;100226.09;;;7.49;100.00
68594;BME280;55563;52.416;13.548;2022-12-29T01:26:23;100231.13;;;7.56;100.00
68594;BME280;55563;52.416;13.548;2022-12-29T01:28:26;100225.44;;;7.64;100.00
68594;BME280;55563;52.416;13.548;2022-12-29T01:30:27;100238.41;;;7.54;100.00
68594;BME280;55563;52.416;13.548;2022-12-29T01:32:27;100236.31;;;7.51;100.00
68594;BME280;55563;52.416;13.548;2022-12-29T01:34:28;100228.88;;;7.69;100.00
68594;BME280;55563;52.416;13.548;2022-12-29T01:36:29;100221.56;;;7.66;100.00
68594;BME280;55563;52.416;13.548;2022-12-29T01:38:31;100222.34;;;7.67;100.00
68594;BME280;55563;52.416;13.548;2022-12-29T01:40:32;100222.34;;;7.67;100.00
68594;BME280;55563;52.416;13.548;2022-12-29T01:42:32;100215.81;;;7.69;100.00
68594;BME280;55563;52.416;13.548;2022-12-29T01:44:58;100229.72;;;7.75;100.00
68594;BME280;55563;52.416;13.548;2022-12-29T01:47:00;100231.22;;;7.66;100.00
68594;BME280;55563;52.416;13.548;2022-12-29T01:51:16;100224.97;;;7.67;100.00
68594;BME280;55563;52.416;13.548;2022-12-29T01:53:20;100222.63;;;7.70;100.00
68594;BME280;55563;52.416;13.548;2022-12-29T01:55:23;100218.16;;;7.66;100.00
68594;BME280;55563;52.416;13.548;2022-12-29T01:57:30;100224.16;;;7.66;100.00
68594;BME280;55563;52.416;13.548;2022-12-29T01:59:33;100212.34;;;7.64;100.00
68594;BME280;55563;52.416;13.548;2022-12-29T02:01:35;100206.09;;;7.65;100.00
68594;BME280;55563;52.416;13.548;2022-12-29T02:03:36;100201.38;;;7.62;100.00
68594;BME280;55563;52.416;13.548;2022-12-29T02:05:39;100202.44;;;7.66;100.00
68594;BME280;55563;52.416;13.548;2022-12-29T02:07:41;100195.91;;;7.68;100.00
68594;BME280;55563;52.416;13.548;2022-12-29T02:09:47;100196.97;;;7.67;100.00
68594;BME280;55563;52.416;13.548;2022-12-29T02:11:50;100198.56;;;7.73;100.00
68594;BME280;55563;52.416;13.548;2022-12-29T02:13:52;100196.22;;;7.72;100.00
68594;BME280;55563;52.416;13.548;2022-12-29T02:16:17;100193.19;;;7.85;100.00
68594;BME280;55563;52.416;13.548;2022-12-29T02:18:35;100189.22;;;7.82;100.00
68594;BME280;55563;52.416;13.548;2022-12-29T02:21:01;100186.31;;;7.79;100.00
68594;BME280;55563;52.416;13.548;2022-12-29T02:27:55;100184.81;;;7.88;100.00
68594;BME280;55563;52.416;13.548;2022-12-29T02:31:08;100179.81;;;7.81;100.00
68594;BME280;55563;52.416;13.548;2022-12-29T02:33:04;100180.56;;;7.77;100.00
68594;BME280;55563;52.416;13.548;2022-12-29T02:35:49;100174.31;;;7.83;100.00
68594;BME280;55563;52.416;13.548;2022-12-29T02:45:41;100167.59;;;7.97;100.00
68594;BME280;55563;52.416;13.548;2022-12-29T02:47:57;100158.44;;;7.95;100.00
68594;BME280;55563;52.416;13.548;2022-12-29T02:50:08;100169.44;;;7.97;100.00
68594;BME280;55563;52.416;13.548;2022-12-29T02:52:18;100166.25;;;7.89;100.00
68594;BME280;55563;52.416;13.548;2022-12-29T02:54:23;100169.72;;;7.95;100.00
68594;BME280;55563;52.416;13.548;2022-12-29T02:56:44;100178.78;;;7.87;100.00
68594;BME280;55563;52.416;13.548;2022-12-29T02:58:45;100179.44;;;8.05;100.00
68594;BME280;55563;52.416;13.548;2022-12-29T03:03:42;100181.72;;;7.91;100.00
68594;BME280;55563;52.416;13.548;2022-12-29T03:05:59;100173.69;;;8.08;100.00
68594;BME280;55563;52.416;13.548;2022-12-29T03:08:06;100162.72;;;8.11;100.00
68594;BME280;55563;52.416;13.548;2022-12-29T03:10:37;100162.97;;;8.04;100.00
68594;BME280;55563;52.416;13.548;2022-12-29T03:12:57;100152.22;;;8.06;100.00
68594;BME280;55563;52.416;13.548;2022-12-29T03:15:28;100151.47;;;8.10;100.00
68594;BME280;55563;52.416;13.548;2022-12-29T03:17:59;100137.84;;;8.08;100.00
68594;BME280;55563;52.416;13.548;2022-12-29T03:20:08;100130.75;;;8.04;100.00
68594;BME280;55563;52.416;13.548;2022-12-29T03:22:18;100130.53;;;8.10;100.00
68594;BME280;55563;52.416;13.548;2022-12-29T03:24:36;100117.75;;;8.19;100.00
68594;BME280;55563;52.416;13.548;2022-12-29T03:26:40;100124.53;;;8.10;100.00
68594;BME280;55563;52.416;13.548;2022-12-29T03:28:47;100129.28;;;8.23;100.00
68594;BME280;55563;52.416;13.548;2022-12-29T03:30:55;100127.94;;;8.15;100.00
68594;BME280;55563;52.416;13.548;2022-12-29T03:33:01;100122.69;;;8.10;100.00
68594;BME280;55563;52.416;13.548;2022-12-29T03:35:05;100122.47;;;8.22;100.00
68594;BME280;55563;52.416;13.548;2022-12-29T03:37:12;100116.72;;;8.20;100.00
68594;BME280;55563;52.416;13.548;2022-12-29T03:39:14;100129.47;;;8.11;100.00
68594;BME280;55563;52.416;13.548;2022-12-29T03:41:19;100122.25;;;8.28;100.00
68594;BME280;55563;52.416;13.548;2022-12-29T03:43:22;100125.19;;;8.37;100.00
68594;BME280;55563;52.416;13.548;2022-12-29T03:45:23;100123.50;;;8.21;100.00
68594;BME280;55563;52.416;13.548;2022-12-29T03:47:24;100118.09;;;8.32;100.00
68594;BME280;55563;52.416;13.548;2022-12-29T03:49:25;100122.44;;;8.17;100.00
68594;BME280;55563;52.416;13.548;2022-12-29T03:51:26;100118.03;;;8.22;100.00
68594;BME280;55563;52.416;13.548;2022-12-29T03:53:28;100117.22;;;8.17;100.00
68594;BME280;55563;52.416;13.548;2022-12-29T03:55:29;100119.84;;;8.22;100.00
68594;BME280;55563;52.416;13.548;2022-12-29T03:57:31;100129.63;;;8.37;100.00
68594;BME280;55563;52.416;13.548;2022-12-29T03:59:35;100118.81;;;8.23;100.00
68594;BME280;55563;52.416;13.548;2022-12-29T04:01:36;100121.16;;;8.19;100.00
68594;BME280;55563;52.416;13.548;2022-12-29T04:03:37;100125.63;;;8.24;100.00
68594;BME280;55563;52.416;13.548;2022-12-29T04:05:38;100129.03;;;8.24;100.00
68594;BME280;55563;52.416;13.548;2022-12-29T04:07:39;100132.72;;;8.28;100.00
68594;BME280;55563;52.416;13.548;2022-12-29T04:09:40;100129.91;;;8.40;100.00
68594;BME280;55563;52.416;13.548;2022-12-29T04:11:43;100125.72;;;8.44;100.00
68594;BME280;55563;52.416;13.548;2022-12-29T04:13:44;100121.56;;;8.48;100.00
68594;BME280;55563;52.416;13.548;2022-12-29T04:15:49;100122.63;;;8.52;100.00
68594;BME280;55563;52.416;13.548;2022-12-29T04:17:50;100118.19;;;8.53;100.00
68594;BME280;55563;52.416;13.548;2022-12-29T04:19:51;100110.03;;;8.49;100.00
68594;BME280;55563;52.416;13.548;2022-12-29T04:21:52;100121.63;;;8.58;100.00
68594;BME280;55563;52.416;13.548;2022-12-29T04:23:52;100111.91;;;8.59;100.00
68594;BME280;55563;52.416;13.548;2022-12-29T04:25:54;100123.91;;;8.45;100.00
68594;BME280;55563;52.416;13.548;2022-12-29T04:27:55;100127.28;;;8.40;100.00
68594;BME280;55563;52.416;13.548;2022-12-29T04:30:16;100134.66;;;8.43;100.00
68594;BME280;55563;52.416;13.548;2022-12-29T04:32:23;100135.69;;;8.42;100.00
68594;BME280;55563;52.416;13.548;2022-12-29T04:34:27;100119.75;;;8.49;100.00
68594;BME280;55563;52.416;13.548;2022-12-29T04:36:28;100118.22;;;8.63;100.00
68594;BME280;55563;52.416;13.548;2022-12-29T04:38:28;100112.22;;;8.67;100.00
68594;BME280;55563;52.416;13.548;2022-12-29T04:40:29;100116.91;;;8.65;100.00
68594;BME280;55563;52.416;13.548;2022-12-29T04:42:30;100114.03;;;8.62;100.00
68594;BME280;55563;52.416;13.548;2022-12-29T04:44:31;100110.34;;;8.58;100.00
68594;BME280;55563;52.416;13.548;2022-12-29T04:46:40;100104.31;;;8.52;100.00
68594;BME280;55563;52.416;13.548;2022-12-29T04:48:44;100107.19;;;8.56;100.00
68594;BME280;55563;52.416;13.548;2022-12-29T04:51:04;100109.03;;;8.60;100.00
68594;BME280;55563;52.416;13.548;2022-12-29T04:53:11;100100.94;;;8.67;100.00
68594;BME280;55563;52.416;13.548;2022-12-29T04:55:12;100110.38;;;8.63;100.00
68594;BME280;55563;52.416;13.548;2022-12-29T04:57:14;100099.13;;;8.72;100.00
68594;BME280;55563;52.416;13.548;2022-12-29T04:59:15;100102.50;;;8.63;100.00
68594;BME280;55563;52.416;13.548;2022-12-29T05:01:18;100095.41;;;8.63;100.00
68594;BME280;55563;52.416;13.548;2022-12-29T05:03:19;100089.66;;;8.66;100.00
68594;BME280;55563;52.416;13.548;2022-12-29T05:05:20;100093.34;;;8.70;100.00
68594;BME280;55563;52.416;13.548;2022-12-29T05:07:24;100098.59;;;8.70;100.00
68594;BME280;55563;52.416;13.548;2022-12-29T05:09:26;100100.13;;;8.61;100.00
68594;BME280;55563;52.416;13.548;2022-12-29T05:11:44;100106.44;;;8.65;100.00
68594;BME280;55563;52.416;13.548;2022-12-29T05:13:46;100097.50;;;8.61;100.00
68594;BME280;55563;52.416;13.548;2022-12-29T05:15:50;100095.97;;;8.70;100.00
68594;BME280;55563;52.416;13.548;2022-12-29T05:17:51;100097.78;;;8.70;100.00
68594;BME280;55563;52.416;13.548;2022-12-29T05:19:52;100085.97;;;8.57;100.00
68594;BME280;55563;52.416;13.548;2022-12-29T05:21:54;100091.75;;;8.64;100.00
68594;BME280;55563;52.416;13.548;2022-12-29T05:23:56;100087.81;;;8.62;100.00
68594;BME280;55563;52.416;13.548;2022-12-29T05:25:58;100086.81;;;8.68;100.00
68594;BME280;55563;52.416;13.548;2022-12-29T05:28:07;100090.75;;;8.81;100.00
68594;BME280;55563;52.416;13.548;2022-12-29T05:30:20;100084.19;;;8.68;100.00
68594;BME280;55563;52.416;13.548;2022-12-29T05:32:21;100074.44;;;8.63;100.00
68594;BME280;55563;52.416;13.548;2022-12-29T05:34:22;100069.50;;;8.67;100.00
68594;BME280;55563;52.416;13.548;2022-12-29T05:36:22;100066.91;;;8.72;100.00
68594;BME280;55563;52.416;13.548;2022-12-29T05:38:27;100060.06;;;8.71;100.00
68594;BME280;55563;52.416;13.548;2022-12-29T05:40:28;100061.63;;;8.62;100.00
68594;BME280;55563;52.416;13.548;2022-12-29T05:42:33;100059.25;;;8.60;100.00
68594;BME280;55563;52.416;13.548;2022-12-29T05:44:48;100061.91;;;8.75;100.00
68594;BME280;55563;52.416;13.548;2022-12-29T05:46:58;100064.28;;;8.82;100.00
68594;BME280;55563;52.416;13.548;2022-12-29T05:49:14;100061.13;;;8.75;100.00
68594;BME280;55563;52.416;13.548;2022-12-29T05:51:26;100074.50;;;8.89;100.00
68594;BME280;55563;52.416;13.548;2022-12-29T05:53:28;100062.44;;;8.88;100.00
68594;BME280;55563;52.416;13.548;2022-12-29T05:55:30;100058.00;;;8.88;100.00
68594;BME280;55563;52.416;13.548;2022-12-29T05:57:31;100069.78;;;8.86;100.00
68594;BME280;55563;52.416;13.548;2022-12-29T05:59:39;100068.50;;;9.03;100.00
68594;BME280;55563;52.416;13.548;2022-12-29T06:01:40;100061.66;;;8.92;100.00
68594;BME280;55563;52.416;13.548;2022-12-29T06:03:42;100062.72;;;8.91;100.00
68594;BME280;55563;52.416;13.548;2022-12-29T06:05:45;100062.72;;;8.91;100.00
68594;BME280;55563;52.416;13.548;2022-12-29T06:07:46;100055.13;;;8.95;100.00
68594;BME280;55563;52.416;13.548;2022-12-29T06:09:49;100055.91;;;8.95;100.00
68594;BME280;55563;52.416;13.548;2022-12-29T06:11:50;100050.66;;;9.00;100.00
68594;BME280;55563;52.416;13.548;2022-12-29T06:13:53;100053.78;;;8.97;100.00
68594;BME280;55563;52.416;13.548;2022-12-29T06:15:54;100056.16;;;9.09;100.00
68594;BME280;55563;52.416;13.548;2022-12-29T06:17:55;100053.28;;;9.05;100.00
68594;BME280;55563;52.416;13.548;2022-12-29T06:19:56;100063.25;;;8.98;100.00
68594;BME280;55563;52.416;13.548;2022-12-29T06:21:57;100066.91;;;9.02;100.00
68594;BME280;55563;52.416;13.548;2022-12-29T06:23:58;100057.50;;;9.01;100.00
68594;BME280;55563;52.416;13.548;2022-12-29T06:25:59;100052.25;;;9.01;100.00
68594;BME280;55563;52.416;13.548;2022-12-29T06:27:59;100046.72;;;9.03;100.00
68594;BME280;55563;52.416;13.548;2022-12-29T06:30:01;100042.81;;;8.95;100.00
68594;BME280;55563;52.416;13.548;2022-12-29T06:32:03;100049.88;;;9.05;100.00
68594;BME280;55563;52.416;13.548;2022-12-29T06:34:06;100047.25;;;9.15;100.00
68594;BME280;55563;52.416;13.548;2022-12-29T06:36:07;100051.47;;;9.11;100.00
68594;BME280;55563;52.416;13.548;2022-12-29T06:38:08;100056.69;;;9.16;100.00
68594;BME280;55563;52.416;13.548;2022-12-29T06:40:09;100057.22;;;9.13;100.00
68594;BME280;55563;52.416;13.548;2022-12-29T06:42:30;100052.75;;;9.13;100.00
68594;BME280;55563;52.416;13.548;2022-12-29T06:44:51;100051.97;;;9.13;100.00
68594;BME280;55563;52.416;13.548;2022-12-29T06:46:52;100043.84;;;9.09;100.00
68594;BME280;55563;52.416;13.548;2022-12-29T06:48:53;100058.78;;;9.04;100.00
68594;BME280;55563;52.416;13.548;2022-12-29T06:50:54;100071.13;;;9.08;100.00
68594;BME280;55563;52.416;13.548;2022-12-29T06:52:55;100061.94;;;9.21;100.00
68594;BME280;55563;52.416;13.548;2022-12-29T06:54:56;100066.41;;;9.15;100.00
68594;BME280;55563;52.416;13.548;2022-12-29T06:56:57;100068.25;;;9.10;100.00
68594;BME280;55563;52.416;13.548;2022-12-29T06:58:58;100077.41;;;9.02;100.00
68594;BME280;55563;52.416;13.548;2022-12-29T07:01:01;100067.44;;;8.99;100.00
68594;BME280;55563;52.416;13.548;2022-12-29T07:03:02;100086.81;;;8.98;100.00
68594;BME280;55563;52.416;13.548;2022-12-29T07:05:03;100079.50;;;8.95;100.00
68594;BME280;55563;52.416;13.548;2022-12-29T07:07:03;100072.94;;;8.98;100.00
68594;BME280;55563;52.416;13.548;2022-12-29T07:09:04;100078.97;;;8.93;100.00
68594;BME280;55563;52.416;13.548;2022-12-29T07:11:05;100078.72;;;8.95;100.00
68594;BME280;55563;52.416;13.548;2022-12-29T07:13:06;100072.13;;;8.92;100.00
68594;BME280;55563;52.416;13.548;2022-12-29T07:15:08;100080.28;;;8.86;100.00
68594;BME280;55563;52.416;13.548;2022-12-29T07:17:10;100078.16;;;8.88;100.00
68594;BME280;55563;52.416;13.548;2022-12-29T07:19:10;100080.78;;;8.93;100.00
68594;BME280;55563;52.416;13.548;2022-12-29T07:21:11;100081.31;;;8.90;100.00
68594;BME280;55563;52.416;13.548;2022-12-29T07:23:12;100082.63;;;8.87;100.00
68594;BME280;55563;52.416;13.548;2022-12-29T07:25:13;100086.00;;;8.83;100.00
68594;BME280;55563;52.416;13.548;2022-12-29T07:27:14;100090.50;;;9.02;100.00
68594;BME280;55563;52.416;13.548;2022-12-29T07:29:14;100087.59;;;8.89;100.00
68594;BME280;55563;52.416;13.548;2022-12-29T07:31:17;100089.72;;;8.97;100.00
68594;BME280;55563;52.416;13.548;2022-12-29T07:33:18;100081.09;;;9.01;100.00
68594;BME280;55563;52.416;13.548;2022-12-29T07:35:19;100084.22;;;9.03;100.00
68594;BME280;55563;52.416;13.548;2022-12-29T07:37:20;100089.72;;;9.02;100.00
68594;BME280;55563;52.416;13.548;2022-12-29T07:39:20;100080.81;;;9.03;100.00
68594;BME280;55563;52.416;13.548;2022-12-29T07:41:21;100072.94;;;8.98;100.00
68594;BME280;55563;52.416;13.548;2022-12-29T07:43:22;100077.94;;;9.09;100.00
68594;BME280;55563;52.416;13.548;2022-12-29T07:45:42;100074.78;;;9.12;100.00
68594;BME280;55563;52.416;13.548;2022-12-29T07:47:47;100076.34;;;9.18;100.00
68594;BME280;55563;52.416;13.548;2022-12-29T07:49:48;100070.88;;;9.20;100.00
68594;BME280;55563;52.416;13.548;2022-12-29T07:51:49;100081.59;;;9.24;100.00
68594;BME280;55563;52.416;13.548;2022-12-29T07:53:49;100075.81;;;9.32;100.00
68594;BME280;55563;52.416;13.548;2022-12-29T07:55:50;100085.28;;;9.28;100.00
68594;BME280;55563;52.416;13.548;2022-12-29T07:57:53;100084.72;;;9.36;100.00
68594;BME280;55563;52.416;13.548;2022-12-29T07:59:54;100080.56;;;9.40;100.00
68594;BME280;55563;52.416;13.548;2022-12-29T08:01:55;100083.94;;;9.40;100.00
68594;BME280;55563;52.416;13.548;2022-12-29T08:03:56;100069.53;;;9.43;100.00
68594;BME280;55563;52.416;13.548;2022-12-29T08:05:57;100073.72;;;9.44;100.00
68594;BME280;55563;52.416;13.548;2022-12-29T08:07:58;100072.91;;;9.69;100.00
68594;BME280;55563;52.416;13.548;2022-12-29T08:09:58;100082.63;;;9.58;100.00
68594;BME280;55563;52.416;13.548;2022-12-29T08:11:59;100074.19;;;9.71;100.00
68594;BME280;55563;52.416;13.548;2022-12-29T08:14:00;100078.66;;;9.71;100.00
68594;BME280;55563;52.416;13.548;2022-12-29T08:16:00;100077.88;;;9.70;100.00
68594;BME280;55563;52.416;13.548;2022-12-29T08:18:02;100090.75;;;9.61;100.00
68594;BME280;55563;52.416;13.548;2022-12-29T08:20:03;100073.19;;;9.62;100.00
68594;BME280;55563;52.416;13.548;2022-12-29T08:22:05;100055.03;;;9.81;100.00
68594;BME280;55563;52.416;13.548;2022-12-29T08:24:06;100073.94;;;9.78;100.00
68594;BME280;55563;52.416;13.548;2022-12-29T08:26:09;100061.88;;;9.77;100.00
68594;BME280;55563;52.416;13.548;2022-12-29T08:28:10;100057.66;;;9.81;100.00
68594;BME280;55563;52.416;13.548;2022-12-29T08:30:11;100072.59;;;9.85;100.00
68594;BME280;55563;52.416;13.548;2022-12-29T08:32:12;100077.84;;;9.85;100.00
68594;BME280;55563;52.416;13.548;2022-12-29T08:34:13;100067.38;;;9.75;100.00
68594;BME280;55563;52.416;13.548;2022-12-29T08:36:13;100074.44;;;9.80;100.00
68594;BME280;55563;52.416;13.548;2022-12-29T08:38:14;100074.69;;;9.83;100.00
68594;BME280;55563;52.416;13.548;2022-12-29T08:40:15;100079.19;;;9.83;100.00
68594;BME280;55563;52.416;13.548;2022-12-29T08:42:16;100072.63;;;9.75;100.00
68594;BME280;55563;52.416;13.548;2022-12-29T08:44:16;100072.38;;;9.67;100.00
68594;BME280;55563;52.416;13.548;2022-12-29T08:46:17;100069.47;;;9.78;100.00
68594;BME280;55563;52.416;13.548;2022-12-29T08:48:18;100058.44;;;9.81;100.00
68594;BME280;55563;52.416;13.548;2022-12-29T08:50:20;100057.66;;;9.81;100.00
68594;BME280;55563;52.416;13.548;2022-12-29T08:52:41;100072.56;;;9.90;100.00
68594;BME280;55563;52.416;13.548;2022-12-29T08:54:41;100073.13;;;9.82;100.00
68594;BME280;55563;52.416;13.548;2022-12-29T08:56:42;100069.22;;;9.64;100.00
68594;BME280;55563;52.416;13.548;2022-12-29T08:58:43;100062.94;;;9.60;100.00
68594;BME280;55563;52.416;13.548;2022-12-29T09:00:45;100068.97;;;9.66;100.00
68594;BME280;55563;52.416;13.548;2022-12-29T09:02:46;100064.75;;;9.75;100.00
68594;BME280;55563;52.416;13.548;2022-12-29T09:04:47;100068.94;;;9.76;100.00
68594;BME280;55563;52.416;13.548;2022-12-29T09:06:47;100068.41;;;9.79;100.00
68594;BME280;55563;52.416;13.548;2022-12-29T09:08:48;100060.00;;;9.87;100.00
68594;BME280;55563;52.416;13.548;2022-12-29T09:10:49;100058.69;;;9.85;100.00
68594;BME280;55563;52.416;13.548;2022-12-29T09:12:50;100060.81;;;9.83;100.00
68594;BME280;55563;52.416;13.548;2022-12-29T09:14:50;100046.88;;;9.92;100.00
68594;BME280;55563;52.416;13.548;2022-12-29T09:16:52;100068.06;;;10.11;100.00
68594;BME280;55563;52.416;13.548;2022-12-29T09:19:12;100047.56;;;10.18;100.00
68594;BME280;55563;52.416;13.548;2022-12-29T09:21:13;100050.69;;;10.25;100.00
68594;BME280;55563;52.416;13.548;2022-12-29T09:23:14;100065.41;;;10.26;100.00
68594;BME280;55563;52.416;13.548;2022-12-29T09:25:15;100050.44;;;10.22;100.00
68594;BME280;55563;52.416;13.548;2022-12-29T09:27:16;100061.41;;;10.34;100.00
68594;BME280;55563;52.416;13.548;2022-12-29T09:29:16;100052.50;;;10.30;100.00
68594;BME280;55563;52.416;13.548;2022-12-29T09:31:17;100050.28;;;10.52;100.00
68594;BME280;55563;52.416;13.548;2022-12-29T09:33:38;100044.78;;;10.48;100.00
68594;BME280;55563;52.416;13.548;2022-12-29T09:35:58;100037.88;;;10.63;100.00
68594;BME280;55563;52.416;13.548;2022-12-29T09:37:59;100046.81;;;10.62;100.00
68594;BME280;55563;52.416;13.548;2022-12-29T09:40:00;100029.44;;;10.66;100.00
68594;BME280;55563;52.416;13.548;2022-12-29T09:42:11;100040.69;;;10.71;100.00
68594;BME280;55563;52.416;13.548;2022-12-29T09:44:28;100042.47;;;10.81;100.00
68594;BME280;55563;52.416;13.548;2022-12-29T09:46:38;100021.69;;;10.79;100.00
68594;BME280;55563;52.416;13.548;2022-12-29T09:48:44;100021.59;;;10.94;100.00
68594;BME280;55563;52.416;13.548;2022-12-29T09:50:50;100014.38;;;11.10;100.00
68594;BME280;55563;52.416;13.548;2022-12-29T09:53:05;100019.84;;;11.14;100.00
68594;BME280;55563;52.416;13.548;2022-12-29T09:55:15;100012.78;;;11.09;100.00
68594;BME280;55563;52.416;13.548;2022-12-29T09:57:21;100014.41;;;11.05;100.00
68594;BME280;55563;52.416;13.548;2022-12-29T09:59:29;100022.25;;;11.39;100.00
68594;BME280;55563;52.416;13.548;2022-12-29T10:01:41;100017.78;;;11.40;100.00
68594;BME280;55563;52.416;13.548;2022-12-29T10:03:49;100011.22;;;11.37;100.00
68594;BME280;55563;52.416;13.548;2022-12-29T10:06:12;100019.31;;;11.46;100.00
68594;BME280;55563;52.416;13.548;2022-12-29T10:10:53;100018.06;;;11.62;100.00
68594;BME280;55563;52.416;13.548;2022-12-29T10:13:02;100019.97;;;11.56;100.00
68594;BME280;55563;52.416;13.548;2022-12-29T10:15:33;100014.00;;;11.51;100.00
68594;BME280;55563;52.416;13.548;2022-12-29T10:18:30;99986.25;;;11.58;100.00
68594;BME280;55563;52.416;13.548;2022-12-29T10:21:00;100007.44;;;11.72;100.00
68594;BME280;55563;52.416;13.548;2022-12-29T10:23:22;100025.06;;;11.71;100.00
68594;BME280;55563;52.416;13.548;2022-12-29T10:25:57;100012.81;;;11.86;100.00
68594;BME280;55563;52.416;13.548;2022-12-29T10:28:45;100002.66;;;11.79;100.00
68594;BME280;55563;52.416;13.548;2022-12-29T10:31:22;100008.13;;;11.83;100.00
68594;BME280;55563;52.416;13.548;2022-12-29T10:33:56;100015.56;;;11.75;100.00
68594;BME280;55563;52.416;13.548;2022-12-29T10:36:30;100014.25;;;11.78;100.00
68594;BME280;55563;52.416;13.548;2022-12-29T10:41:45;100003.22;;;11.71;100.00
68594;BME280;55563;52.416;13.548;2022-12-29T10:44:16;99994.75;;;11.79;100.00
68594;BME280;55563;52.416;13.548;2022-12-29T10:46:30;100013.44;;;11.77;100.00
68594;BME280;55563;52.416;13.548;2022-12-29T10:48:53;99997.94;;;11.76;100.00
68594;BME280;55563;52.416;13.548;2022-12-29T10:51:02;100010.56;;;11.79;100.00
68594;BME280;55563;52.416;13.548;2022-12-29T10:56:00;100009.44;;;12.04;100.00
68594;BME280;55563;52.416;13.548;2022-12-29T10:58:31;100004.28;;;12.17;100.00
68594;BME280;55563;52.416;13.548;2022-12-29T11:00:39;100008.97;;;12.20;100.00
68594;BME280;55563;52.416;13.548;2022-12-29T11:03:59;100004.88;;;12.09;100.00
68594;BME280;55563;52.416;13.548;2022-12-29T11:06:25;100016.13;;;11.96;100.00
68594;BME280;55563;52.416;13.548;2022-12-29T11:08:57;100016.56;;;12.03;100.00
68594;BME280;55563;52.416;13.548;2022-12-29T11:11:35;100009.72;;;12.02;100.00
68594;BME280;55563;52.416;13.548;2022-12-29T11:14:13;100018.38;;;12.08;100.00
68594;BME280;55563;52.416;13.548;2022-12-29T11:16:41;100012.00;;;12.09;100.00
68594;BME280;55563;52.416;13.548;2022-12-29T11:18:55;100013.16;;;12.03;100.00
68594;BME280;55563;52.416;13.548;2022-12-29T11:21:33;100017.34;;;12.04;100.00
68594;BME280;55563;52.416;13.548;2022-12-29T11:23:54;100016.63;;;11.98;100.00
68594;BME280;55563;52.416;13.548;2022-12-29T11:28:28;100019.38;;;11.88;100.00